Terminal Aerodrome Forecast
Issued by NWS Goodland, KS

Home | Current Version | Previous Version | Text Only | Print | Product List | Glossary On
Versions: 1 2 3 4 5 6 7 8 9 10 11 12 13 14 15 16
000
FTUS43 KGLD 271121
TAFGLD
TAF
KGLD 271121Z 2712/2812 17006KT P6SM BKN080
     FM271700 28009KT P6SM SCT250
     FM271900 31011G19KT P6SM SCT250
     FM280000 32008KT P6SM SCT200
     FM280500 26008KT P6SM SCT250=

USA.gov is the U.S. government's official web portal to all federal, state and local government web resources and services.